WetterOnline ( https://www.wetteronline.de )

Wetter aktuell Bodenmais

Aktuelles Wetter: Großer Arber (1446m)

6-stündlich | Neueste Meldungen
Ortszeit Temperatur Wetter
Sa, 05.12. 1:00 2.1° C bedeckt
Fr, 04.12. 19:00 2.2° C wolkenlos
Fr, 04.12. 13:00 2.3° C leicht bewölkt
Fr, 04.12. 7:00 -1.4° C bedeckt
Fr, 04.12. 1:00 -3.1° C wolkenlos
Do, 03.12. 19:00 -7.5° C wolkenlos
Do, 03.12. 13:00 -8.6° C Nebel
Do, 03.12. 7:00 -9.8° C Nebel
Ortszeit Temperatur Wetter
Sa, 05.12. 4:30 2.3° C bewölkt
Sa, 05.12. 4:20 2.3° C bewölkt
Sa, 05.12. 4:10 2.2° C bedeckt
Sa, 05.12. 4:00 2.0° C wolkig
Sa, 05.12. 3:50 2.0° C wolkig
Sa, 05.12. 3:40 1.9° C wolkig
Sa, 05.12. 3:30 2.0° C wolkig
Sa, 05.12. 3:00 2.2° C wolkig
Sa, 05.12. 2:30 2.1° C bewölkt
Sa, 05.12. 2:00 2.2° C bewölkt
Sa, 05.12. 1:30 2.3° C bewölkt
Ortszeit Relative Feuchte Sichtweite
Sa, 05.12. 1:00 58% >70 km
Fr, 04.12. 19:00 47% >70 km
Fr, 04.12. 13:00 41% 50 km
Fr, 04.12. 7:00 57% >70 km
Fr, 04.12. 1:00 85% >70 km
Do, 03.12. 19:00 91% 30 km
Do, 03.12. 13:00 93% <100 m
Do, 03.12. 7:00 92% <100 m
Ortszeit Relative Feuchte Sichtweite
Sa, 05.12. 4:30 67% >70 km
Sa, 05.12. 4:20 67% -
Sa, 05.12. 4:10 67% -
Sa, 05.12. 4:00 68% >70 km
Sa, 05.12. 3:50 68% -
Sa, 05.12. 3:40 68% -
Sa, 05.12. 3:30 67% >70 km
Sa, 05.12. 3:00 64% >70 km
Sa, 05.12. 2:30 64% -
Sa, 05.12. 2:00 61% >70 km
Sa, 05.12. 1:30 59% >70 km
Ortszeit Niederschlagsmenge Niederschlagsart
Sa, 05.12. 1:00 0.0 l/m2 in 6 Std. -
Fr, 04.12. 19:00 0.0 l/m2 in 12 Std. -
Fr, 04.12. 13:00 0.1 l/m2 in 6 Std. Schnee
Fr, 04.12. 7:00 0.1 l/m2 in 12 Std. -
Fr, 04.12. 1:00 0.1 l/m2 in 6 Std. Schnee
Do, 03.12. 19:00 0.1 l/m2 in 12 Std. Schnee
Do, 03.12. 13:00 0.1 l/m2 in 6 Std. Schnee
Do, 03.12. 7:00 0.1 l/m2 in 12 Std. Schnee
Ortszeit Niederschlagsmenge Niederschlagsart
Sa, 05.12. 4:30 0.0 l/m2 in 1 Std. -
Sa, 05.12. 4:20 keine Meldung -
Sa, 05.12. 4:10 keine Meldung -
Sa, 05.12. 4:00 0.0 l/m2 in 1 Std. -
Sa, 05.12. 3:50 keine Meldung -
Sa, 05.12. 3:40 keine Meldung -
Sa, 05.12. 3:30 0.0 l/m2 in 1 Std. -
Sa, 05.12. 3:00 0.0 l/m2 in 1 Std. -
Sa, 05.12. 2:30 0.0 l/m2 in 1 Std. -
Sa, 05.12. 2:00 0.0 l/m2 in 1 Std. -
Sa, 05.12. 1:30 0.0 l/m2 in 1 Std. -
Ortszeit Stärke Spitze Richtung
km/h Bft. km/h Grad Sektor
Sa, 05.12. 1:00 48 6 70 140° SO
Fr, 04.12. 19:00 46 6 78 150° SO
Fr, 04.12. 13:00 29 5 50 160° S
Fr, 04.12. 7:00 30 5 46 180° S
Fr, 04.12. 1:00 31 5 48 150° SO
Do, 03.12. 19:00 39 6 43 190° S
Do, 03.12. 13:00 18 3 43 190° S
Do, 03.12. 7:00 28 4 35 190° S
Ortszeit Stärke Spitze Richtung
km/h Bft. km/h Grad Sektor
Sa, 05.12. 4:30 47 6 65 140° SO
Sa, 05.12. 4:20 47 6 - 140° SO
Sa, 05.12. 4:10 43 6 - 140° SO
Sa, 05.12. 4:00 47 6 68 140° SO
Sa, 05.12. 3:50 47 6 - 140° SO
Sa, 05.12. 3:40 46 6 - 140° SO
Sa, 05.12. 3:30 50 6 69 150° SO
Sa, 05.12. 3:00 47 6 68 150° SO
Sa, 05.12. 2:30 50 7 68 150° SO
Sa, 05.12. 2:00 47 6 72 140° SO
Sa, 05.12. 1:30 47 6 72 140° SO
Ortszeit Untergrenze Bedeckung Gattung
total tief tief mittel hoch
Sa, 05.12. 1:00 6000 m 8/8 8/8 - - -
Fr, 04.12. 19:00 - 0/8 0/8 - - -
Fr, 04.12. 13:00 6300 m 2/8 4/8 - - -
Fr, 04.12. 7:00 5100 m 8/8 8/8 - - -
Fr, 04.12. 1:00 - 0/8 0/8 - - -
Do, 03.12. 19:00 - 0/8 0/8 - - -
Do, 03.12. 13:00 <30 m 8/8 0/8 - - -
Do, 03.12. 7:00 <30 m 8/8 0/8 - - -
Ortszeit Bedeckungsgrad in Achtel und Wolkenuntergrenze
Sa, 05.12. 4:30 6(4800m) 7(7500m)
Sa, 05.12. 4:20 6(4800m) 7(7500m)
Sa, 05.12. 4:10 7(4800m) 8(5400m) 8(7500m)
Sa, 05.12. 4:00 4(5400m) 7(7500m) 7(8100m)
Sa, 05.12. 3:50 4(5400m) 7(7500m) 7(8100m)
Sa, 05.12. 3:40 1(5700m) 7(7500m) 7(8100m)
Sa, 05.12. 3:30 8(7200m) 7(8100m)
Sa, 05.12. 3:00 1(5100m) 8(7500m)
Sa, 05.12. 2:30 4(4800m) 8(7500m)
Sa, 05.12. 2:00 6(4800m) 6(5700m) 8(7800m)
Sa, 05.12. 1:30 4(5700m) 4(7500m) 8(8400m)
Ortszeit Stationsdruck (hPa) Tendenz (hPa in 3 Std.)
Sa, 05.12. 1:00 832 - 0,8
Fr, 04.12. 19:00 832 + 0,1
Fr, 04.12. 13:00 832 - 0,5
Fr, 04.12. 7:00 832 - 0,8
Fr, 04.12. 1:00 834 - 2,0
Do, 03.12. 19:00 837 - 1,9
Do, 03.12. 13:00 841 - 1,0
Do, 03.12. 7:00 842 - 1,6
Ortszeit Stationsdruck (hPa) Tendenz (hPa in 3 Std.)
Sa, 05.12. 4:30 832 + 0,2
Sa, 05.12. 4:20 832 keine Meldung
Sa, 05.12. 4:10 832 keine Meldung
Sa, 05.12. 4:00 832 + 0,1
Sa, 05.12. 3:50 832 keine Meldung
Sa, 05.12. 3:40 832 keine Meldung
Sa, 05.12. 3:30 832 + 0,3
Sa, 05.12. 3:00 833 + 0,4
Sa, 05.12. 2:30 832 0,0
Sa, 05.12. 2:00 832 - 0,5
Sa, 05.12. 1:30 832 - 0,9
Ortszeit Schneehöhe (cm)
Sa, 05.12. 1:00 0
Fr, 04.12. 19:00 0
Fr, 04.12. 13:00 0
Fr, 04.12. 7:00 0
Fr, 04.12. 1:00 0
Do, 03.12. 19:00 0
Do, 03.12. 13:00 0
Do, 03.12. 7:00 0
Ortszeit Schneehöhe (cm)
Sa, 05.12. 4:30 0
Sa, 05.12. 4:20 0
Sa, 05.12. 4:10 0
Sa, 05.12. 4:00 0
Sa, 05.12. 3:50 0
Sa, 05.12. 3:40 0
Sa, 05.12. 3:30 0
Sa, 05.12. 3:00 0
Sa, 05.12. 2:30 0
Sa, 05.12. 2:00 0
Sa, 05.12. 1:30 0
Link zu dieser Seite / Seite empfehlen

Das Wetter in ...